Terminal Aerodrome Forecast
Issued by NWS Bismarck, ND

Home | Current Version | Previous Version | Graphics & Text | Print | Product List | Glossary On
Versions: 1 2 3 4 5 6 7 8 9 10 11 12
064
FTUS43 KBIS 281128
TAFBIS
TAF
KBIS 281128Z 2812/2912 05005KT P6SM SKC
     FM281600 18008KT P6SM SCT250
     FM282100 21010KT P6SM SCT250
     FM290200 VRB05KT P6SM FEW250
     FM290500 01005KT P6SM SCT100 BKN250=

USA.gov is the U.S. government's official web portal to all federal, state and local government web resources and services.